sensor_id;sensor_type;location;lat;lon;timestamp;P1;durP1;ratioP1;P2;durP2;ratioP2
4389;SDS011;2209;48.982;8.406;2023-07-08T00:02:13;9.30;;;5.10;;
4389;SDS011;2209;48.982;8.406;2023-07-08T00:04:35;7.93;;;4.70;;
4389;SDS011;2209;48.982;8.406;2023-07-08T00:06:57;10.83;;;5.60;;
4389;SDS011;2209;48.982;8.406;2023-07-08T00:09:19;7.60;;;5.87;;
4389;SDS011;2209;48.982;8.406;2023-07-08T00:11:41;6.57;;;5.03;;
4389;SDS011;2209;48.982;8.406;2023-07-08T00:14:03;8.40;;;5.27;;
4389;SDS011;2209;48.982;8.406;2023-07-08T00:16:25;10.20;;;5.73;;
4389;SDS011;2209;48.982;8.406;2023-07-08T00:18:48;9.30;;;5.53;;
4389;SDS011;2209;48.982;8.406;2023-07-08T00:21:11;6.20;;;4.90;;
4389;SDS011;2209;48.982;8.406;2023-07-08T00:23:36;6.77;;;5.50;;
4389;SDS011;2209;48.982;8.406;2023-07-08T00:25:58;11.03;;;5.50;;
4389;SDS011;2209;48.982;8.406;2023-07-08T00:28:20;6.20;;;5.30;;
4389;SDS011;2209;48.982;8.406;2023-07-08T00:30:42;6.20;;;4.53;;
4389;SDS011;2209;48.982;8.406;2023-07-08T00:33:05;11.27;;;5.13;;
4389;SDS011;2209;48.982;8.406;2023-07-08T00:35:29;5.83;;;5.23;;
4389;SDS011;2209;48.982;8.406;2023-07-08T00:37:54;9.90;;;4.90;;
4389;SDS011;2209;48.982;8.406;2023-07-08T00:40:21;8.40;;;5.37;;
4389;SDS011;2209;48.982;8.406;2023-07-08T00:42:45;6.90;;;5.57;;
4389;SDS011;2209;48.982;8.406;2023-07-08T00:45:10;8.63;;;5.27;;
4389;SDS011;2209;48.982;8.406;2023-07-08T00:47:41;5.77;;;4.43;;
4389;SDS011;2209;48.982;8.406;2023-07-08T00:50:04;7.30;;;5.17;;
4389;SDS011;2209;48.982;8.406;2023-07-08T00:52:33;5.67;;;5.03;;
4389;SDS011;2209;48.982;8.406;2023-07-08T00:54:56;5.67;;;5.17;;
4389;SDS011;2209;48.982;8.406;2023-07-08T00:57:23;22.33;;;7.13;;
4389;SDS011;2209;48.982;8.406;2023-07-08T00:59:50;6.73;;;5.23;;
4389;SDS011;2209;48.982;8.406;2023-07-08T01:02:16;8.97;;;5.60;;
4389;SDS011;2209;48.982;8.406;2023-07-08T01:04:43;5.47;;;4.60;;
4389;SDS011;2209;48.982;8.406;2023-07-08T01:07:10;6.13;;;5.53;;
4389;SDS011;2209;48.982;8.406;2023-07-08T01:09:34;7.60;;;4.97;;
4389;SDS011;2209;48.982;8.406;2023-07-08T01:12:00;8.03;;;5.90;;
4389;SDS011;2209;48.982;8.406;2023-07-08T01:14:25;8.47;;;6.67;;
4389;SDS011;2209;48.982;8.406;2023-07-08T01:16:52;8.43;;;6.63;;
4389;SDS011;2209;48.982;8.406;2023-07-08T01:19:14;9.90;;;6.20;;
4389;SDS011;2209;48.982;8.406;2023-07-08T01:21:45;8.20;;;5.60;;
4389;SDS011;2209;48.982;8.406;2023-07-08T01:24:09;6.90;;;5.63;;
4389;SDS011;2209;48.982;8.406;2023-07-08T01:26:33;7.67;;;5.60;;
4389;SDS011;2209;48.982;8.406;2023-07-08T01:28:58;7.50;;;5.60;;
4389;SDS011;2209;48.982;8.406;2023-07-08T01:31:20;7.50;;;5.37;;
4389;SDS011;2209;48.982;8.406;2023-07-08T01:33:43;12.87;;;6.50;;
4389;SDS011;2209;48.982;8.406;2023-07-08T01:36:07;9.63;;;6.00;;
4389;SDS011;2209;48.982;8.406;2023-07-08T01:38:31;6.37;;;4.63;;
4389;SDS011;2209;48.982;8.406;2023-07-08T01:40:54;7.17;;;5.67;;
4389;SDS011;2209;48.982;8.406;2023-07-08T01:43:17;6.97;;;5.37;;
4389;SDS011;2209;48.982;8.406;2023-07-08T01:45:40;6.77;;;5.33;;
4389;SDS011;2209;48.982;8.406;2023-07-08T01:48:04;7.47;;;5.63;;
4389;SDS011;2209;48.982;8.406;2023-07-08T01:50:30;6.80;;;5.37;;
4389;SDS011;2209;48.982;8.406;2023-07-08T01:52:53;8.13;;;5.87;;
4389;SDS011;2209;48.982;8.406;2023-07-08T01:55:21;9.20;;;5.87;;
4389;SDS011;2209;48.982;8.406;2023-07-08T01:57:44;6.77;;;5.07;;
4389;SDS011;2209;48.982;8.406;2023-07-08T02:00:07;7.03;;;6.07;;
4389;SDS011;2209;48.982;8.406;2023-07-08T02:02:30;7.10;;;5.47;;
4389;SDS011;2209;48.982;8.406;2023-07-08T02:04:52;9.90;;;6.20;;
4389;SDS011;2209;48.982;8.406;2023-07-08T02:07:14;6.80;;;4.97;;
4389;SDS011;2209;48.982;8.406;2023-07-08T02:09:36;6.03;;;4.93;;
4389;SDS011;2209;48.982;8.406;2023-07-08T02:11:59;8.00;;;5.60;;
4389;SDS011;2209;48.982;8.406;2023-07-08T02:14:21;8.83;;;5.63;;
4389;SDS011;2209;48.982;8.406;2023-07-08T02:16:44;7.13;;;5.33;;
4389;SDS011;2209;48.982;8.406;2023-07-08T02:19:06;7.27;;;5.63;;
4389;SDS011;2209;48.982;8.406;2023-07-08T02:21:28;6.87;;;5.97;;
4389;SDS011;2209;48.982;8.406;2023-07-08T02:23:51;6.53;;;5.33;;
4389;SDS011;2209;48.982;8.406;2023-07-08T02:26:13;11.10;;;6.37;;
4389;SDS011;2209;48.982;8.406;2023-07-08T02:28:37;9.67;;;5.53;;
4389;SDS011;2209;48.982;8.406;2023-07-08T02:31:01;12.13;;;5.43;;
4389;SDS011;2209;48.982;8.406;2023-07-08T02:33:23;7.97;;;6.07;;
4389;SDS011;2209;48.982;8.406;2023-07-08T02:35:48;5.67;;;4.97;;
4389;SDS011;2209;48.982;8.406;2023-07-08T02:38:10;8.07;;;5.30;;
4389;SDS011;2209;48.982;8.406;2023-07-08T02:40:32;9.23;;;5.67;;
4389;SDS011;2209;48.982;8.406;2023-07-08T02:42:54;8.07;;;6.03;;
4389;SDS011;2209;48.982;8.406;2023-07-08T02:45:17;11.27;;;5.97;;
4389;SDS011;2209;48.982;8.406;2023-07-08T02:47:40;8.27;;;6.87;;
4389;SDS011;2209;48.982;8.406;2023-07-08T02:50:02;7.80;;;5.53;;
4389;SDS011;2209;48.982;8.406;2023-07-08T02:52:25;5.67;;;5.17;;
4389;SDS011;2209;48.982;8.406;2023-07-08T02:54:47;6.60;;;5.17;;
4389;SDS011;2209;48.982;8.406;2023-07-08T02:57:09;6.60;;;4.97;;
4389;SDS011;2209;48.982;8.406;2023-07-08T02:59:31;7.10;;;5.47;;
4389;SDS011;2209;48.982;8.406;2023-07-08T03:01:54;7.50;;;6.70;;
4389;SDS011;2209;48.982;8.406;2023-07-08T03:04:16;7.00;;;5.50;;
4389;SDS011;2209;48.982;8.406;2023-07-08T03:06:39;6.00;;;4.63;;
4389;SDS011;2209;48.982;8.406;2023-07-08T03:09:01;7.40;;;5.90;;
4389;SDS011;2209;48.982;8.406;2023-07-08T03:11:23;10.73;;;5.83;;
4389;SDS011;2209;48.982;8.406;2023-07-08T03:13:45;8.10;;;5.80;;
4389;SDS011;2209;48.982;8.406;2023-07-08T03:16:07;8.90;;;6.63;;
4389;SDS011;2209;48.982;8.406;2023-07-08T03:18:34;8.60;;;7.07;;
4389;SDS011;2209;48.982;8.406;2023-07-08T03:20:59;6.73;;;5.43;;
4389;SDS011;2209;48.982;8.406;2023-07-08T03:23:21;7.23;;;5.40;;
4389;SDS011;2209;48.982;8.406;2023-07-08T03:25:44;6.30;;;5.33;;
4389;SDS011;2209;48.982;8.406;2023-07-08T03:28:06;9.00;;;6.07;;
4389;SDS011;2209;48.982;8.406;2023-07-08T03:30:34;10.27;;;6.10;;
4389;SDS011;2209;48.982;8.406;2023-07-08T03:32:56;9.17;;;6.40;;
4389;SDS011;2209;48.982;8.406;2023-07-08T03:35:19;8.67;;;6.70;;
4389;SDS011;2209;48.982;8.406;2023-07-08T03:37:42;7.90;;;5.50;;
4389;SDS011;2209;48.982;8.406;2023-07-08T03:40:05;6.77;;;4.83;;
4389;SDS011;2209;48.982;8.406;2023-07-08T03:42:30;7.43;;;6.13;;
4389;SDS011;2209;48.982;8.406;2023-07-08T03:44:52;15.53;;;7.87;;
4389;SDS011;2209;48.982;8.406;2023-07-08T03:47:14;7.90;;;6.27;;
4389;SDS011;2209;48.982;8.406;2023-07-08T03:49:36;7.07;;;5.73;;
4389;SDS011;2209;48.982;8.406;2023-07-08T03:51:59;7.73;;;5.30;;
4389;SDS011;2209;48.982;8.406;2023-07-08T03:54:22;6.97;;;6.03;;
4389;SDS011;2209;48.982;8.406;2023-07-08T03:56:45;5.30;;;4.60;;
4389;SDS011;2209;48.982;8.406;2023-07-08T03:59:07;8.80;;;5.60;;
4389;SDS011;2209;48.982;8.406;2023-07-08T04:01:29;9.80;;;6.00;;
4389;SDS011;2209;48.982;8.406;2023-07-08T04:03:52;6.97;;;5.70;;
4389;SDS011;2209;48.982;8.406;2023-07-08T04:06:15;11.23;;;5.57;;
4389;SDS011;2209;48.982;8.406;2023-07-08T04:08:39;8.33;;;6.47;;
4389;SDS011;2209;48.982;8.406;2023-07-08T04:11:01;7.33;;;6.03;;
4389;SDS011;2209;48.982;8.406;2023-07-08T04:13:23;7.90;;;5.53;;
4389;SDS011;2209;48.982;8.406;2023-07-08T04:15:45;6.73;;;5.23;;
4389;SDS011;2209;48.982;8.406;2023-07-08T04:18:12;9.27;;;5.73;;
4389;SDS011;2209;48.982;8.406;2023-07-08T04:20:34;7.13;;;5.33;;
4389;SDS011;2209;48.982;8.406;2023-07-08T04:22:56;7.60;;;6.63;;
4389;SDS011;2209;48.982;8.406;2023-07-08T04:25:20;10.07;;;5.77;;
4389;SDS011;2209;48.982;8.406;2023-07-08T04:27:45;12.80;;;5.60;;
4389;SDS011;2209;48.982;8.406;2023-07-08T04:30:09;9.67;;;4.80;;
4389;SDS011;2209;48.982;8.406;2023-07-08T04:32:39;11.43;;;6.70;;
4389;SDS011;2209;48.982;8.406;2023-07-08T04:35:01;6.43;;;5.10;;
4389;SDS011;2209;48.982;8.406;2023-07-08T04:37:23;9.00;;;5.60;;
4389;SDS011;2209;48.982;8.406;2023-07-08T04:39:46;8.10;;;5.30;;
4389;SDS011;2209;48.982;8.406;2023-07-08T04:42:09;5.80;;;5.07;;
4389;SDS011;2209;48.982;8.406;2023-07-08T04:44:33;9.23;;;5.93;;
4389;SDS011;2209;48.982;8.406;2023-07-08T04:46:55;9.73;;;6.33;;
4389;SDS011;2209;48.982;8.406;2023-07-08T04:49:18;7.40;;;5.17;;
4389;SDS011;2209;48.982;8.406;2023-07-08T04:51:40;6.83;;;5.80;;
4389;SDS011;2209;48.982;8.406;2023-07-08T04:54:03;7.93;;;5.80;;
4389;SDS011;2209;48.982;8.406;2023-07-08T04:56:25;9.23;;;6.03;;
4389;SDS011;2209;48.982;8.406;2023-07-08T04:58:58;7.73;;;5.80;;
4389;SDS011;2209;48.982;8.406;2023-07-08T05:01:20;9.30;;;6.50;;
4389;SDS011;2209;48.982;8.406;2023-07-08T05:03:42;8.40;;;6.17;;
4389;SDS011;2209;48.982;8.406;2023-07-08T05:06:04;8.20;;;6.30;;
4389;SDS011;2209;48.982;8.406;2023-07-08T05:08:26;11.37;;;7.03;;
4389;SDS011;2209;48.982;8.406;2023-07-08T05:10:48;7.37;;;6.17;;
4389;SDS011;2209;48.982;8.406;2023-07-08T05:13:10;7.73;;;5.90;;
4389;SDS011;2209;48.982;8.406;2023-07-08T05:15:34;7.60;;;5.97;;
4389;SDS011;2209;48.982;8.406;2023-07-08T05:17:56;9.20;;;5.40;;
4389;SDS011;2209;48.982;8.406;2023-07-08T05:20:18;9.23;;;6.40;;
4389;SDS011;2209;48.982;8.406;2023-07-08T05:22:40;7.30;;;5.80;;
4389;SDS011;2209;48.982;8.406;2023-07-08T05:25:04;9.93;;;7.23;;
4389;SDS011;2209;48.982;8.406;2023-07-08T05:27:27;8.33;;;5.70;;
4389;SDS011;2209;48.982;8.406;2023-07-08T05:29:49;7.43;;;5.83;;
4389;SDS011;2209;48.982;8.406;2023-07-08T05:32:13;15.80;;;6.50;;
4389;SDS011;2209;48.982;8.406;2023-07-08T05:34:35;8.60;;;6.27;;
4389;SDS011;2209;48.982;8.406;2023-07-08T05:36:57;9.20;;;6.87;;
4389;SDS011;2209;48.982;8.406;2023-07-08T05:39:19;9.47;;;7.40;;
4389;SDS011;2209;48.982;8.406;2023-07-08T05:41:41;10.63;;;6.40;;
4389;SDS011;2209;48.982;8.406;2023-07-08T05:44:03;9.07;;;6.23;;
4389;SDS011;2209;48.982;8.406;2023-07-08T05:46:26;7.40;;;5.97;;
4389;SDS011;2209;48.982;8.406;2023-07-08T05:48:49;19.23;;;8.40;;
4389;SDS011;2209;48.982;8.406;2023-07-08T05:51:13;9.70;;;6.43;;
4389;SDS011;2209;48.982;8.406;2023-07-08T05:53:35;8.10;;;6.40;;
4389;SDS011;2209;48.982;8.406;2023-07-08T05:55:57;9.10;;;6.60;;
4389;SDS011;2209;48.982;8.406;2023-07-08T05:58:19;10.80;;;7.60;;
4389;SDS011;2209;48.982;8.406;2023-07-08T06:00:41;6.17;;;5.57;;
4389;SDS011;2209;48.982;8.406;2023-07-08T06:03:03;9.83;;;7.37;;
4389;SDS011;2209;48.982;8.406;2023-07-08T06:05:27;10.13;;;6.80;;
4389;SDS011;2209;48.982;8.406;2023-07-08T06:07:49;7.47;;;6.33;;
4389;SDS011;2209;48.982;8.406;2023-07-08T06:10:11;10.93;;;6.63;;
4389;SDS011;2209;48.982;8.406;2023-07-08T06:12:33;8.40;;;5.97;;
4389;SDS011;2209;48.982;8.406;2023-07-08T06:14:55;7.33;;;5.53;;
4389;SDS011;2209;48.982;8.406;2023-07-08T06:17:17;7.53;;;5.70;;
4389;SDS011;2209;48.982;8.406;2023-07-08T06:19:39;8.33;;;5.90;;
4389;SDS011;2209;48.982;8.406;2023-07-08T06:22:03;9.53;;;4.77;;
4389;SDS011;2209;48.982;8.406;2023-07-08T06:24:26;4.93;;;4.50;;
4389;SDS011;2209;48.982;8.406;2023-07-08T06:26:48;6.60;;;4.43;;
4389;SDS011;2209;48.982;8.406;2023-07-08T06:29:10;8.20;;;4.70;;
4389;SDS011;2209;48.982;8.406;2023-07-08T06:31:32;6.40;;;4.90;;
4389;SDS011;2209;48.982;8.406;2023-07-08T06:33:54;8.87;;;5.00;;
4389;SDS011;2209;48.982;8.406;2023-07-08T06:36:16;7.60;;;4.80;;
4389;SDS011;2209;48.982;8.406;2023-07-08T06:38:39;5.30;;;4.40;;
4389;SDS011;2209;48.982;8.406;2023-07-08T06:41:01;9.73;;;5.30;;
4389;SDS011;2209;48.982;8.406;2023-07-08T06:43:23;7.30;;;5.30;;
4389;SDS011;2209;48.982;8.406;2023-07-08T06:45:46;4.87;;;4.40;;
4389;SDS011;2209;48.982;8.406;2023-07-08T06:48:08;7.17;;;5.27;;
4389;SDS011;2209;48.982;8.406;2023-07-08T06:50:30;6.17;;;5.00;;
4389;SDS011;2209;48.982;8.406;2023-07-08T06:52:52;14.00;;;4.70;;
4389;SDS011;2209;48.982;8.406;2023-07-08T06:55:17;7.60;;;5.40;;
4389;SDS011;2209;48.982;8.406;2023-07-08T06:57:39;7.57;;;5.63;;
4389;SDS011;2209;48.982;8.406;2023-07-08T07:00:01;9.10;;;5.60;;
4389;SDS011;2209;48.982;8.406;2023-07-08T07:02:23;7.20;;;5.10;;
4389;SDS011;2209;48.982;8.406;2023-07-08T07:04:45;6.93;;;5.80;;
4389;SDS011;2209;48.982;8.406;2023-07-08T07:07:07;6.63;;;5.37;;
4389;SDS011;2209;48.982;8.406;2023-07-08T07:09:29;5.97;;;5.13;;
4389;SDS011;2209;48.982;8.406;2023-07-08T07:11:53;7.77;;;5.20;;
4389;SDS011;2209;48.982;8.406;2023-07-08T07:14:15;7.30;;;4.70;;
4389;SDS011;2209;48.982;8.406;2023-07-08T07:16:37;7.77;;;5.80;;
4389;SDS011;2209;48.982;8.406;2023-07-08T07:18:59;6.20;;;4.93;;
4389;SDS011;2209;48.982;8.406;2023-07-08T07:21:21;7.03;;;4.40;;
4389;SDS011;2209;48.982;8.406;2023-07-08T07:23:43;5.57;;;3.70;;
4389;SDS011;2209;48.982;8.406;2023-07-08T07:26:05;9.60;;;3.80;;
4389;SDS011;2209;48.982;8.406;2023-07-08T07:28:29;4.87;;;4.40;;
4389;SDS011;2209;48.982;8.406;2023-07-08T07:30:55;7.00;;;3.70;;
4389;SDS011;2209;48.982;8.406;2023-07-08T07:33:18;4.97;;;3.23;;
4389;SDS011;2209;48.982;8.406;2023-07-08T07:35:43;3.50;;;3.13;;
4389;SDS011;2209;48.982;8.406;2023-07-08T07:38:05;4.10;;;3.37;;
4389;SDS011;2209;48.982;8.406;2023-07-08T07:40:27;3.47;;;3.17;;
4389;SDS011;2209;48.982;8.406;2023-07-08T07:42:49;5.00;;;2.67;;
4389;SDS011;2209;48.982;8.406;2023-07-08T07:45:13;4.83;;;3.13;;
4389;SDS011;2209;48.982;8.406;2023-07-08T07:47:35;3.07;;;2.77;;
4389;SDS011;2209;48.982;8.406;2023-07-08T07:49:57;3.87;;;3.47;;
4389;SDS011;2209;48.982;8.406;2023-07-08T07:52:19;8.30;;;2.90;;
4389;SDS011;2209;48.982;8.406;2023-07-08T07:54:44;3.10;;;2.90;;
4389;SDS011;2209;48.982;8.406;2023-07-08T07:57:06;3.90;;;3.27;;
4389;SDS011;2209;48.982;8.406;2023-07-08T07:59:29;7.37;;;3.70;;
4389;SDS011;2209;48.982;8.406;2023-07-08T08:01:52;4.40;;;2.97;;
4389;SDS011;2209;48.982;8.406;2023-07-08T08:04:14;3.73;;;3.43;;
4389;SDS011;2209;48.982;8.406;2023-07-08T08:06:36;3.90;;;2.77;;
4389;SDS011;2209;48.982;8.406;2023-07-08T08:08:58;4.40;;;2.63;;
4389;SDS011;2209;48.982;8.406;2023-07-08T08:11:21;2.80;;;2.60;;
4389;SDS011;2209;48.982;8.406;2023-07-08T08:13:43;5.60;;;2.80;;
4389;SDS011;2209;48.982;8.406;2023-07-08T08:16:05;4.20;;;2.93;;
4389;SDS011;2209;48.982;8.406;2023-07-08T08:18:28;2.60;;;2.40;;
4389;SDS011;2209;48.982;8.406;2023-07-08T08:20:50;3.10;;;2.40;;
4389;SDS011;2209;48.982;8.406;2023-07-08T08:23:12;3.27;;;2.57;;
4389;SDS011;2209;48.982;8.406;2023-07-08T08:25:34;3.20;;;2.43;;
4389;SDS011;2209;48.982;8.406;2023-07-08T08:27:56;4.13;;;2.47;;
4389;SDS011;2209;48.982;8.406;2023-07-08T08:30:18;4.33;;;2.30;;
4389;SDS011;2209;48.982;8.406;2023-07-08T08:32:41;3.20;;;2.00;;
4389;SDS011;2209;48.982;8.406;2023-07-08T08:35:04;2.57;;;2.37;;
4389;SDS011;2209;48.982;8.406;2023-07-08T08:37:27;3.37;;;3.07;;
4389;SDS011;2209;48.982;8.406;2023-07-08T08:39:49;2.40;;;1.80;;
4389;SDS011;2209;48.982;8.406;2023-07-08T08:42:13;1.90;;;1.73;;
4389;SDS011;2209;48.982;8.406;2023-07-08T08:44:43;4.80;;;1.77;;
4389;SDS011;2209;48.982;8.406;2023-07-08T08:47:06;3.30;;;1.93;;
4389;SDS011;2209;48.982;8.406;2023-07-08T08:49:43;5.77;;;1.90;;
4389;SDS011;2209;48.982;8.406;2023-07-08T08:52:10;2.93;;;2.17;;
4389;SDS011;2209;48.982;8.406;2023-07-08T08:54:32;1.90;;;1.77;;
4389;SDS011;2209;48.982;8.406;2023-07-08T08:56:56;3.30;;;2.23;;
4389;SDS011;2209;48.982;8.406;2023-07-08T08:59:27;1.97;;;1.67;;
4389;SDS011;2209;48.982;8.406;2023-07-08T09:01:57;2.70;;;1.97;;
4389;SDS011;2209;48.982;8.406;2023-07-08T09:04:21;4.40;;;2.20;;
4389;SDS011;2209;48.982;8.406;2023-07-08T09:06:48;2.23;;;2.00;;
4389;SDS011;2209;48.982;8.406;2023-07-08T09:09:18;2.50;;;1.47;;
4389;SDS011;2209;48.982;8.406;2023-07-08T09:11:48;3.90;;;1.90;;
4389;SDS011;2209;48.982;8.406;2023-07-08T09:14:24;1.53;;;1.37;;
4389;SDS011;2209;48.982;8.406;2023-07-08T09:16:50;1.67;;;1.57;;
4389;SDS011;2209;48.982;8.406;2023-07-08T09:19:21;4.47;;;1.73;;
4389;SDS011;2209;48.982;8.406;2023-07-08T09:21:46;3.80;;;1.87;;
4389;SDS011;2209;48.982;8.406;2023-07-08T09:24:16;3.87;;;1.70;;
4389;SDS011;2209;48.982;8.406;2023-07-08T09:26:44;2.63;;;1.93;;
4389;SDS011;2209;48.982;8.406;2023-07-08T09:29:07;2.17;;;1.97;;
4389;SDS011;2209;48.982;8.406;2023-07-08T09:31:31;2.07;;;1.97;;
4389;SDS011;2209;48.982;8.406;2023-07-08T09:34:05;1.67;;;1.53;;
4389;SDS011;2209;48.982;8.406;2023-07-08T09:36:29;1.87;;;1.57;;
4389;SDS011;2209;48.982;8.406;2023-07-08T09:38:51;2.13;;;1.87;;
4389;SDS011;2209;48.982;8.406;2023-07-08T09:41:18;1.70;;;1.60;;
4389;SDS011;2209;48.982;8.406;2023-07-08T09:43:50;3.50;;;1.73;;
4389;SDS011;2209;48.982;8.406;2023-07-08T09:46:22;3.17;;;1.30;;
4389;SDS011;2209;48.982;8.406;2023-07-08T09:48:44;1.77;;;1.67;;
4389;SDS011;2209;48.982;8.406;2023-07-08T09:51:06;2.97;;;1.63;;
4389;SDS011;2209;48.982;8.406;2023-07-08T09:53:28;3.87;;;1.60;;
4389;SDS011;2209;48.982;8.406;2023-07-08T09:55:51;2.00;;;1.90;;
4389;SDS011;2209;48.982;8.406;2023-07-08T09:58:18;2.30;;;1.60;;
4389;SDS011;2209;48.982;8.406;2023-07-08T10:00:44;2.33;;;1.63;;
4389;SDS011;2209;48.982;8.406;2023-07-08T10:03:15;4.40;;;2.27;;
4389;SDS011;2209;48.982;8.406;2023-07-08T10:05:42;3.80;;;2.30;;
4389;SDS011;2209;48.982;8.406;2023-07-08T10:08:09;2.40;;;2.20;;
4389;SDS011;2209;48.982;8.406;2023-07-08T10:10:36;2.17;;;1.97;;
4389;SDS011;2209;48.982;8.406;2023-07-08T10:13:00;3.80;;;2.37;;
4389;SDS011;2209;48.982;8.406;2023-07-08T10:15:29;3.20;;;2.50;;
4389;SDS011;2209;48.982;8.406;2023-07-08T10:17:55;2.10;;;1.90;;
4389;SDS011;2209;48.982;8.406;2023-07-08T10:20:17;1.70;;;1.60;;
4389;SDS011;2209;48.982;8.406;2023-07-08T10:22:42;2.20;;;1.97;;
4389;SDS011;2209;48.982;8.406;2023-07-08T10:25:21;1.50;;;1.40;;
4389;SDS011;2209;48.982;8.406;2023-07-08T10:27:49;3.50;;;2.20;;
4389;SDS011;2209;48.982;8.406;2023-07-08T10:30:19;2.33;;;2.10;;
4389;SDS011;2209;48.982;8.406;2023-07-08T10:32:48;3.57;;;2.20;;
4389;SDS011;2209;48.982;8.406;2023-07-08T10:35:23;2.40;;;1.90;;
4389;SDS011;2209;48.982;8.406;2023-07-08T10:37:53;2.40;;;2.20;;
4389;SDS011;2209;48.982;8.406;2023-07-08T10:40:29;3.10;;;2.80;;
4389;SDS011;2209;48.982;8.406;2023-07-08T10:43:03;5.80;;;2.43;;
4389;SDS011;2209;48.982;8.406;2023-07-08T10:45:45;2.40;;;1.60;;
4389;SDS011;2209;48.982;8.406;2023-07-08T10:48:18;7.77;;;2.50;;
4389;SDS011;2209;48.982;8.406;2023-07-08T10:50:57;6.43;;;2.10;;
4389;SDS011;2209;48.982;8.406;2023-07-08T10:53:33;1.80;;;1.70;;
4389;SDS011;2209;48.982;8.406;2023-07-08T10:56:07;6.40;;;3.20;;
4389;SDS011;2209;48.982;8.406;2023-07-08T10:58:39;2.43;;;2.23;;
4389;SDS011;2209;48.982;8.406;2023-07-08T11:01:16;2.70;;;1.93;;
4389;SDS011;2209;48.982;8.406;2023-07-08T11:03:56;1.90;;;1.73;;
4389;SDS011;2209;48.982;8.406;2023-07-08T11:06:35;2.77;;;2.53;;
4389;SDS011;2209;48.982;8.406;2023-07-08T11:09:05;2.47;;;2.27;;
4389;SDS011;2209;48.982;8.406;2023-07-08T11:11:30;2.23;;;2.13;;
4389;SDS011;2209;48.982;8.406;2023-07-08T11:13:58;2.10;;;2.00;;
4389;SDS011;2209;48.982;8.406;2023-07-08T11:16:26;2.00;;;1.90;;
4389;SDS011;2209;48.982;8.406;2023-07-08T11:18:52;3.50;;;2.27;;
4389;SDS011;2209;48.982;8.406;2023-07-08T11:21:21;3.13;;;1.90;;
4389;SDS011;2209;48.982;8.406;2023-07-08T11:23:47;4.07;;;2.57;;
4389;SDS011;2209;48.982;8.406;2023-07-08T11:26:16;4.50;;;3.03;;
4389;SDS011;2209;48.982;8.406;2023-07-08T11:28:43;3.90;;;2.80;;
4389;SDS011;2209;48.982;8.406;2023-07-08T11:31:06;3.80;;;2.60;;
4389;SDS011;2209;48.982;8.406;2023-07-08T11:33:28;2.90;;;2.70;;
4389;SDS011;2209;48.982;8.406;2023-07-08T11:35:54;2.60;;;2.43;;
4389;SDS011;2209;48.982;8.406;2023-07-08T11:38:19;2.07;;;1.93;;
4389;SDS011;2209;48.982;8.406;2023-07-08T11:40:55;2.37;;;2.17;;
4389;SDS011;2209;48.982;8.406;2023-07-08T11:43:19;3.30;;;2.50;;
4389;SDS011;2209;48.982;8.406;2023-07-08T11:45:44;4.20;;;2.53;;
4389;SDS011;2209;48.982;8.406;2023-07-08T11:48:09;3.10;;;2.67;;
4389;SDS011;2209;48.982;8.406;2023-07-08T11:50:35;2.53;;;2.23;;
4389;SDS011;2209;48.982;8.406;2023-07-08T11:53:01;2.83;;;2.40;;
4389;SDS011;2209;48.982;8.406;2023-07-08T11:55:25;2.53;;;2.33;;
4389;SDS011;2209;48.982;8.406;2023-07-08T11:57:57;3.17;;;2.90;;
4389;SDS011;2209;48.982;8.406;2023-07-08T12:00:22;5.17;;;3.33;;
4389;SDS011;2209;48.982;8.406;2023-07-08T12:02:49;3.10;;;2.20;;
4389;SDS011;2209;48.982;8.406;2023-07-08T12:05:14;3.60;;;3.10;;
4389;SDS011;2209;48.982;8.406;2023-07-08T12:07:37;3.53;;;2.70;;
4389;SDS011;2209;48.982;8.406;2023-07-08T12:10:05;2.80;;;2.60;;
4389;SDS011;2209;48.982;8.406;2023-07-08T12:12:32;2.13;;;2.03;;
4389;SDS011;2209;48.982;8.406;2023-07-08T12:14:59;4.07;;;2.57;;
4389;SDS011;2209;48.982;8.406;2023-07-08T12:17:29;2.43;;;2.27;;
4389;SDS011;2209;48.982;8.406;2023-07-08T12:19:51;3.10;;;2.30;;
4389;SDS011;2209;48.982;8.406;2023-07-08T12:22:17;2.50;;;2.30;;
4389;SDS011;2209;48.982;8.406;2023-07-08T12:24:41;3.13;;;2.83;;
4389;SDS011;2209;48.982;8.406;2023-07-08T12:27:05;2.60;;;2.40;;
4389;SDS011;2209;48.982;8.406;2023-07-08T12:29:29;2.70;;;2.50;;
4389;SDS011;2209;48.982;8.406;2023-07-08T12:31:52;4.13;;;2.83;;
4389;SDS011;2209;48.982;8.406;2023-07-08T12:34:15;4.37;;;3.67;;
4389;SDS011;2209;48.982;8.406;2023-07-08T12:36:38;2.93;;;2.60;;
4389;SDS011;2209;48.982;8.406;2023-07-08T12:39:00;3.93;;;3.53;;
4389;SDS011;2209;48.982;8.406;2023-07-08T12:41:23;2.93;;;2.67;;
4389;SDS011;2209;48.982;8.406;2023-07-08T12:43:51;2.33;;;2.13;;
4389;SDS011;2209;48.982;8.406;2023-07-08T12:46:14;2.73;;;2.53;;
4389;SDS011;2209;48.982;8.406;2023-07-08T12:48:39;6.87;;;4.30;;
4389;SDS011;2209;48.982;8.406;2023-07-08T12:51:02;5.80;;;2.87;;
4389;SDS011;2209;48.982;8.406;2023-07-08T12:53:25;2.83;;;2.53;;
4389;SDS011;2209;48.982;8.406;2023-07-08T12:55:48;4.30;;;3.90;;
4389;SDS011;2209;48.982;8.406;2023-07-08T12:58:22;3.23;;;2.90;;
4389;SDS011;2209;48.982;8.406;2023-07-08T13:00:49;4.90;;;2.60;;
4389;SDS011;2209;48.982;8.406;2023-07-08T13:03:13;6.10;;;3.20;;
4389;SDS011;2209;48.982;8.406;2023-07-08T13:05:38;3.87;;;3.00;;
4389;SDS011;2209;48.982;8.406;2023-07-08T13:08:01;6.30;;;3.53;;
4389;SDS011;2209;48.982;8.406;2023-07-08T13:10:24;3.20;;;3.00;;
4389;SDS011;2209;48.982;8.406;2023-07-08T13:12:50;3.63;;;3.30;;
4389;SDS011;2209;48.982;8.406;2023-07-08T13:15:17;4.87;;;4.13;;
4389;SDS011;2209;48.982;8.406;2023-07-08T13:17:44;5.60;;;3.73;;
4389;SDS011;2209;48.982;8.406;2023-07-08T13:20:07;6.27;;;3.80;;
4389;SDS011;2209;48.982;8.406;2023-07-08T13:22:35;3.43;;;3.13;;
4389;SDS011;2209;48.982;8.406;2023-07-08T13:25:00;3.90;;;3.40;;
4389;SDS011;2209;48.982;8.406;2023-07-08T13:27:24;4.57;;;4.13;;
4389;SDS011;2209;48.982;8.406;2023-07-08T13:29:47;4.50;;;3.30;;
4389;SDS011;2209;48.982;8.406;2023-07-08T13:32:09;4.40;;;3.20;;
4389;SDS011;2209;48.982;8.406;2023-07-08T13:34:33;5.40;;;3.33;;
4389;SDS011;2209;48.982;8.406;2023-07-08T13:36:56;4.20;;;3.43;;
4389;SDS011;2209;48.982;8.406;2023-07-08T13:39:19;4.90;;;3.20;;
4389;SDS011;2209;48.982;8.406;2023-07-08T13:41:46;4.30;;;3.47;;
4389;SDS011;2209;48.982;8.406;2023-07-08T13:44:08;6.90;;;3.07;;
4389;SDS011;2209;48.982;8.406;2023-07-08T13:46:33;3.73;;;3.33;;
4389;SDS011;2209;48.982;8.406;2023-07-08T13:48:59;6.27;;;3.10;;
4389;SDS011;2209;48.982;8.406;2023-07-08T13:51:23;4.60;;;3.33;;
4389;SDS011;2209;48.982;8.406;2023-07-08T13:53:52;3.93;;;3.47;;
4389;SDS011;2209;48.982;8.406;2023-07-08T13:56:20;4.70;;;3.30;;
4389;SDS011;2209;48.982;8.406;2023-07-08T13:58:44;5.13;;;3.20;;
4389;SDS011;2209;48.982;8.406;2023-07-08T14:01:08;6.40;;;3.53;;
4389;SDS011;2209;48.982;8.406;2023-07-08T14:03:35;3.67;;;3.37;;
4389;SDS011;2209;48.982;8.406;2023-07-08T14:05:57;5.13;;;3.40;;
4389;SDS011;2209;48.982;8.406;2023-07-08T14:08:21;3.30;;;3.10;;
4389;SDS011;2209;48.982;8.406;2023-07-08T14:10:43;2.90;;;2.60;;
4389;SDS011;2209;48.982;8.406;2023-07-08T14:13:06;6.20;;;3.67;;
4389;SDS011;2209;48.982;8.406;2023-07-08T14:15:28;6.50;;;3.87;;
4389;SDS011;2209;48.982;8.406;2023-07-08T14:17:50;6.43;;;3.37;;
4389;SDS011;2209;48.982;8.406;2023-07-08T14:20:13;3.40;;;3.10;;
4389;SDS011;2209;48.982;8.406;2023-07-08T14:22:37;3.57;;;3.27;;
4389;SDS011;2209;48.982;8.406;2023-07-08T14:25:05;4.53;;;2.93;;
4389;SDS011;2209;48.982;8.406;2023-07-08T14:27:29;3.57;;;3.13;;
4389;SDS011;2209;48.982;8.406;2023-07-08T14:29:51;5.60;;;3.40;;
4389;SDS011;2209;48.982;8.406;2023-07-08T14:32:14;4.57;;;3.10;;
4389;SDS011;2209;48.982;8.406;2023-07-08T14:34:38;4.10;;;3.70;;
4389;SDS011;2209;48.982;8.406;2023-07-08T14:37:00;4.03;;;2.83;;
4389;SDS011;2209;48.982;8.406;2023-07-08T14:39:22;3.67;;;3.10;;
4389;SDS011;2209;48.982;8.406;2023-07-08T14:41:46;4.93;;;3.67;;
4389;SDS011;2209;48.982;8.406;2023-07-08T14:44:16;5.27;;;3.40;;
4389;SDS011;2209;48.982;8.406;2023-07-08T14:46:42;3.27;;;3.07;;
4389;SDS011;2209;48.982;8.406;2023-07-08T14:49:07;4.33;;;3.97;;
4389;SDS011;2209;48.982;8.406;2023-07-08T14:51:35;3.90;;;3.50;;
4389;SDS011;2209;48.982;8.406;2023-07-08T14:53:57;3.97;;;2.90;;
4389;SDS011;2209;48.982;8.406;2023-07-08T14:56:19;3.57;;;3.27;;
4389;SDS011;2209;48.982;8.406;2023-07-08T14:58:43;3.87;;;3.57;;